Time,TemperatureF,DewpointF,PressureIn,WindDirection,WindDirectionDegrees,WindSpeedMPH,WindSpeedGustMPH,Humidity,HourlyPrecipIn,Conditions,Clouds,dailyrainin,SolarRadiationWatts/m^2,SoftwareType,DateUTC
2013-02-13 00:02:00,16.0,14.0,-100.00,WNW,282,1.0,4.0,92,0.00,,,0.00,0.000000,,2013-02-13 06:02:00,
2013-02-13 00:11:00,16.0,14.0,-100.00,WNW,282,1.0,4.0,92,0.00,,,0.00,0.000000,,2013-02-13 06:11:00,
2013-02-13 00:32:00,13.0,11.0,-100.00,West,259,0.0,2.0,93,0.00,,,0.00,0.000000,,2013-02-13 06:32:00,
2013-02-13 00:42:00,13.0,11.0,-100.00,West,259,0.0,2.0,93,0.00,,,0.00,0.000000,,2013-02-13 06:42:00,
2013-02-13 00:52:00,13.0,11.0,-100.00,West,259,0.0,2.0,93,0.00,,,0.00,0.000000,,2013-02-13 06:52:00,
2013-02-13 01:02:00,13.0,11.0,-100.00,West,259,0.0,2.0,93,0.00,,,0.00,0.000000,,2013-02-13 07:02:00,
2013-02-13 01:11:00,13.0,11.0,-100.00,West,259,0.0,2.0,93,0.00,,,0.00,0.000000,,2013-02-13 07:11:00,
2013-02-13 01:42:00,10.0,8.0,-100.00,West,266,0.0,0.0,90,0.00,,,0.00,0.000000,,2013-02-13 07:42:00,
2013-02-13 01:52:00,10.0,8.0,-100.00,West,266,0.0,0.0,90,0.00,,,0.00,0.000000,,2013-02-13 07:52:00,
2013-02-13 02:01:00,10.0,8.0,-100.00,West,266,0.0,0.0,90,0.00,,,0.00,0.000000,,2013-02-13 08:01:00,
2013-02-13 02:11:00,10.0,8.0,-100.00,West,266,0.0,0.0,90,0.00,,,0.00,0.000000,,2013-02-13 08:11:00,
2013-02-13 02:32:00,9.0,6.0,-100.00,WSW,252,0.0,0.0,89,0.00,,,0.00,0.000000,,2013-02-13 08:32:00,
2013-02-13 02:43:00,9.0,6.0,-100.00,WSW,252,0.0,0.0,89,0.00,,,0.00,0.000000,,2013-02-13 08:43:00,
2013-02-13 02:52:00,9.0,6.0,-100.00,WSW,252,0.0,0.0,89,0.00,,,0.00,0.000000,,2013-02-13 08:52:00,
2013-02-13 03:01:00,9.0,6.0,-100.00,WSW,252,0.0,0.0,89,0.00,,,0.00,0.000000,,2013-02-13 09:01:00,
2013-02-13 03:11:00,9.0,6.0,-100.00,WSW,252,0.0,0.0,89,0.00,,,0.00,0.000000,,2013-02-13 09:11:00,
2013-02-13 03:42:00,11.0,9.0,-100.00,West,262,1.0,4.0,90,0.00,,,0.00,0.000000,,2013-02-13 09:42:00,
2013-02-13 03:52:00,11.0,9.0,-100.00,West,262,1.0,4.0,90,0.00,,,0.00,0.000000,,2013-02-13 09:52:00,
2013-02-13 04:01:00,11.0,9.0,-100.00,West,262,1.0,4.0,90,0.00,,,0.00,0.000000,,2013-02-13 10:01:00,
2013-02-13 04:11:00,11.0,9.0,-100.00,West,262,1.0,4.0,90,0.00,,,0.00,0.000000,,2013-02-13 10:11:00,
2013-02-13 04:32:00,11.0,9.0,-100.00,WSW,241,2.0,3.0,92,0.00,,,0.00,0.000000,,2013-02-13 10:32:00,
2013-02-13 04:42:00,11.0,9.0,-100.00,WSW,241,2.0,3.0,92,0.00,,,0.00,0.000000,,2013-02-13 10:42:00,
2013-02-13 04:52:00,11.0,9.0,-100.00,WSW,241,2.0,3.0,92,0.00,,,0.00,0.000000,,2013-02-13 10:52:00,
2013-02-13 05:01:00,11.0,9.0,-100.00,WSW,241,2.0,3.0,92,0.00,,,0.00,0.000000,,2013-02-13 11:01:00,
2013-02-13 05:11:00,11.0,9.0,-100.00,WSW,241,2.0,3.0,92,0.00,,,0.00,0.000000,,2013-02-13 11:11:00,
2013-02-13 05:32:00,16.0,14.0,-100.00,West,268,1.0,4.0,93,0.00,,,0.00,0.000000,,2013-02-13 11:32:00,
2013-02-13 05:42:00,16.0,14.0,-100.00,West,268,1.0,4.0,93,0.00,,,0.00,0.000000,,2013-02-13 11:42:00,
2013-02-13 05:52:00,16.0,14.0,-100.00,West,268,1.0,4.0,93,0.00,,,0.00,0.000000,,2013-02-13 11:52:00,
2013-02-13 06:02:00,16.0,14.0,-100.00,West,268,1.0,4.0,93,0.00,,,0.00,0.000000,,2013-02-13 12:02:00,
2013-02-13 06:11:00,16.0,14.0,-100.00,West,268,1.0,4.0,93,0.00,,,0.00,0.000000,,2013-02-13 12:11:00,
2013-02-13 06:42:00,20.0,18.0,-100.00,West,277,3.0,5.0,93,0.00,,,0.00,0.000000,,2013-02-13 12:42:00,
2013-02-13 06:52:00,20.0,18.0,-100.00,West,277,3.0,5.0,93,0.00,,,0.00,0.000000,,2013-02-13 12:52:00,
2013-02-13 07:02:00,20.0,18.0,-100.00,West,277,3.0,5.0,93,0.00,,,0.00,0.000000,,2013-02-13 13:02:00,
2013-02-13 07:11:00,20.0,18.0,-100.00,West,277,3.0,5.0,93,0.00,,,0.00,0.000000,,2013-02-13 13:11:00,
2013-02-13 07:42:00,19.0,17.0,-100.00,West,272,2.0,6.0,93,0.00,,,0.00,2.000000,,2013-02-13 13:42:00,
2013-02-13 07:52:00,19.0,17.0,-100.00,West,272,2.0,6.0,93,0.00,,,0.00,2.000000,,2013-02-13 13:52:00,
2013-02-13 08:01:00,19.0,17.0,-100.00,West,272,2.0,6.0,93,0.00,,,0.00,2.000000,,2013-02-13 14:01:00,
2013-02-13 08:11:00,19.0,17.0,-100.00,West,272,2.0,6.0,93,0.00,,,0.00,2.000000,,2013-02-13 14:11:00,
2013-02-13 08:32:00,21.0,19.0,-100.00,WSW,255,1.0,6.0,91,0.00,,,0.00,40.000000,,2013-02-13 14:32:00,
2013-02-13 08:42:00,21.0,19.0,-100.00,WSW,255,1.0,6.0,91,0.00,,,0.00,40.000000,,2013-02-13 14:42:00,
2013-02-13 08:52:00,21.0,19.0,-100.00,WSW,255,1.0,6.0,91,0.00,,,0.00,40.000000,,2013-02-13 14:52:00,
2013-02-13 09:01:00,21.0,19.0,-100.00,WSW,255,1.0,6.0,91,0.00,,,0.00,40.000000,,2013-02-13 15:01:00,
2013-02-13 09:11:00,21.0,19.0,-100.00,WSW,255,1.0,6.0,91,0.00,,,0.00,40.000000,,2013-02-13 15:11:00,
2013-02-13 09:42:00,26.0,21.0,-100.00,WSW,255,3.0,7.0,80,0.00,,,0.00,147.000000,,2013-02-13 15:42:00,
2013-02-13 09:52:00,26.0,21.0,-100.00,WSW,255,3.0,7.0,80,0.00,,,0.00,147.000000,,2013-02-13 15:52:00,
2013-02-13 10:01:00,26.0,21.0,-100.00,WSW,255,3.0,7.0,80,0.00,,,0.00,147.000000,,2013-02-13 16:01:00,
2013-02-13 10:11:00,26.0,21.0,-100.00,WSW,255,3.0,7.0,80,0.00,,,0.00,147.000000,,2013-02-13 16:11:00,
2013-02-13 10:42:00,30.0,22.0,-100.00,WSW,247,2.0,6.0,72,0.00,,,0.00,203.000000,,2013-02-13 16:42:00,
2013-02-13 10:52:00,30.0,22.0,-100.00,WSW,247,2.0,6.0,72,0.00,,,0.00,203.000000,,2013-02-13 16:52:00,
2013-02-13 11:01:00,30.0,22.0,-100.00,WSW,247,2.0,6.0,72,0.00,,,0.00,203.000000,,2013-02-13 17:01:00,
2013-02-13 11:11:00,30.0,22.0,-100.00,WSW,247,2.0,6.0,72,0.00,,,0.00,203.000000,,2013-02-13 17:11:00,
2013-02-13 11:42:00,35.0,24.0,-100.00,SSW,213,3.0,5.0,63,0.00,,,0.00,318.000000,,2013-02-13 17:42:00,
2013-02-13 11:52:00,35.0,24.0,-100.00,SSW,213,3.0,5.0,63,0.00,,,0.00,318.000000,,2013-02-13 17:52:00,
2013-02-13 12:02:00,35.0,24.0,-100.00,SSW,213,3.0,5.0,63,0.00,,,0.00,318.000000,,2013-02-13 18:02:00,
2013-02-13 12:11:00,35.0,24.0,-100.00,SSW,213,3.0,5.0,63,0.00,,,0.00,318.000000,,2013-02-13 18:11:00,
2013-02-13 12:32:00,37.0,24.0,-100.00,WSW,248,2.0,5.0,60,0.00,,,-99.99,308.000000,,2013-02-13 18:32:00,
2013-02-13 12:42:00,37.0,24.0,-100.00,WSW,248,2.0,5.0,60,0.00,,,-99.99,308.000000,,2013-02-13 18:42:00,
2013-02-13 12:52:00,37.0,24.0,-100.00,WSW,248,2.0,5.0,60,0.00,,,-99.99,308.000000,,2013-02-13 18:52:00,
2013-02-13 13:01:00,37.0,24.0,-100.00,WSW,248,2.0,5.0,60,0.00,,,-99.99,308.000000,,2013-02-13 19:01:00,
2013-02-13 13:11:00,37.0,24.0,-100.00,WSW,248,2.0,5.0,60,0.00,,,-99.99,308.000000,,2013-02-13 19:11:00,
2013-02-13 13:32:00,39.0,25.0,-100.00,West,260,2.0,6.0,56,0.00,,,0.00,243.000000,,2013-02-13 19:32:00,
2013-02-13 13:42:00,39.0,25.0,-100.00,West,260,2.0,6.0,56,0.00,,,0.00,243.000000,,2013-02-13 19:42:00,
2013-02-13 13:52:00,39.0,25.0,-100.00,West,260,2.0,6.0,56,0.00,,,0.00,243.000000,,2013-02-13 19:52:00,
2013-02-13 14:02:00,39.0,25.0,-100.00,West,260,2.0,6.0,56,0.00,,,0.00,243.000000,,2013-02-13 20:02:00,
2013-02-13 14:11:00,39.0,25.0,-100.00,West,260,2.0,6.0,56,0.00,,,0.00,243.000000,,2013-02-13 20:11:00,
2013-02-13 14:42:00,42.0,25.0,-100.00,SW,233,2.0,5.0,51,0.00,,,-99.99,250.000000,,2013-02-13 20:42:00,
2013-02-13 14:52:00,42.0,25.0,-100.00,SW,233,2.0,5.0,51,0.00,,,-99.99,250.000000,,2013-02-13 20:52:00,
2013-02-13 15:01:00,42.0,25.0,-100.00,SW,233,2.0,5.0,51,0.00,,,-99.99,250.000000,,2013-02-13 21:01:00,
2013-02-13 15:11:00,42.0,25.0,-100.00,SW,233,2.0,5.0,51,0.00,,,-99.99,250.000000,,2013-02-13 21:11:00,
2013-02-13 15:42:00,40.0,25.0,-100.00,SW,226,4.0,9.0,55,0.00,,,0.00,216.000000,,2013-02-13 21:42:00,
2013-02-13 15:52:00,40.0,25.0,-100.00,SW,226,4.0,9.0,55,0.00,,,0.00,216.000000,,2013-02-13 21:52:00,
2013-02-13 16:02:00,40.0,25.0,-100.00,SW,226,4.0,9.0,55,0.00,,,0.00,216.000000,,2013-02-13 22:02:00,
2013-02-13 16:11:00,40.0,25.0,-100.00,SW,226,4.0,9.0,55,0.00,,,0.00,216.000000,,2013-02-13 22:11:00,
2013-02-13 16:42:00,38.0,25.0,-100.00,WSW,250,2.0,7.0,60,0.00,,,0.00,135.000000,,2013-02-13 22:42:00,
2013-02-13 16:52:00,38.0,25.0,-100.00,WSW,250,2.0,7.0,60,0.00,,,0.00,135.000000,,2013-02-13 22:52:00,
2013-02-13 17:01:00,38.0,25.0,-100.00,WSW,250,2.0,7.0,60,0.00,,,0.00,135.000000,,2013-02-13 23:01:00,
2013-02-13 17:11:00,38.0,25.0,-100.00,WSW,250,2.0,7.0,60,0.00,,,0.00,135.000000,,2013-02-13 23:11:00,
2013-02-13 17:42:00,32.0,27.0,-100.00,WSW,239,0.0,2.0,80,0.00,,,0.00,35.000000,,2013-02-13 23:42:00,
2013-02-13 17:52:00,32.0,27.0,-100.00,WSW,239,0.0,2.0,80,0.00,,,0.00,35.000000,,2013-02-13 23:52:00,
2013-02-13 18:02:00,32.0,27.0,-100.00,WSW,239,0.0,2.0,80,0.00,,,0.00,35.000000,,2013-02-14 00:02:00,
2013-02-13 18:11:00,32.0,27.0,-100.00,WSW,239,0.0,2.0,80,0.00,,,0.00,35.000000,,2013-02-14 00:11:00,
2013-02-13 18:42:00,29.0,26.0,-100.00,WNW,288,0.0,0.0,90,0.00,,,0.00,1.000000,,2013-02-14 00:42:00,
2013-02-13 18:52:00,29.0,26.0,-100.00,WNW,288,0.0,0.0,90,0.00,,,0.00,1.000000,,2013-02-14 00:52:00,
2013-02-13 19:01:00,29.0,26.0,-100.00,WNW,288,0.0,0.0,90,0.00,,,0.00,1.000000,,2013-02-14 01:01:00,
2013-02-13 19:11:00,29.0,26.0,-100.00,WNW,288,0.0,0.0,90,0.00,,,0.00,1.000000,,2013-02-14 01:11:00,
2013-02-13 21:02:00,27.0,25.0,-100.00,WNW,303,0.0,2.0,93,-99.99,,,0.00,0.000000,,2013-02-14 03:02:00,
2013-02-13 21:11:00,27.0,25.0,-100.00,WNW,303,0.0,2.0,93,-99.99,,,0.00,0.000000,,2013-02-14 03:11:00,
2013-02-13 21:32:00,26.0,24.0,-100.00,WNW,293,0.0,3.0,93,0.00,,,0.00,0.000000,,2013-02-14 03:32:00,
2013-02-13 21:42:00,26.0,24.0,-100.00,WNW,293,0.0,3.0,93,0.00,,,0.00,0.000000,,2013-02-14 03:42:00,
2013-02-13 21:52:00,26.0,24.0,-100.00,WNW,293,0.0,3.0,93,0.00,,,0.00,0.000000,,2013-02-14 03:52:00,
2013-02-13 22:01:00,26.0,24.0,-100.00,WNW,293,0.0,3.0,93,0.00,,,0.00,0.000000,,2013-02-14 04:01:00,
2013-02-13 22:12:00,26.0,24.0,-100.00,WNW,293,0.0,3.0,93,0.00,,,0.00,0.000000,,2013-02-14 04:12:00,
2013-02-13 22:32:00,25.0,24.0,-100.00,NW,321,0.0,4.0,95,0.00,,,0.00,0.000000,,2013-02-14 04:32:00,
2013-02-13 22:42:00,25.0,24.0,-100.00,NW,321,0.0,4.0,95,0.00,,,0.00,0.000000,,2013-02-14 04:42:00,
2013-02-13 22:52:00,25.0,24.0,-100.00,NW,321,0.0,4.0,95,0.00,,,0.00,0.000000,,2013-02-14 04:52:00,
2013-02-13 23:02:00,25.0,24.0,-100.00,NW,321,0.0,4.0,95,0.00,,,0.00,0.000000,,2013-02-14 05:02:00,
2013-02-13 23:11:00,25.0,24.0,-100.00,NW,321,0.0,4.0,95,0.00,,,0.00,0.000000,,2013-02-14 05:11:00,
2013-02-13 23:32:00,26.0,25.0,-100.00,West,264,0.0,2.0,97,0.00,,,0.00,0.000000,,2013-02-14 05:32:00,
2013-02-13 23:42:00,26.0,25.0,-100.00,West,264,0.0,2.0,97,0.00,,,0.00,0.000000,,2013-02-14 05:42:00,
2013-02-13 23:52:00,26.0,25.0,-100.00,West,264,0.0,2.0,97,0.00,,,0.00,0.000000,,2013-02-14 05:52:00,